createdAt,value
2024-02-24T00:02:19.083Z,98352.09
2024-02-24T00:05:09.447Z,98359.44
2024-02-24T00:07:58.905Z,98361.38
2024-02-24T00:10:48.961Z,98357.63
2024-02-24T00:13:39.868Z,98363.16
2024-02-24T00:16:29.385Z,98343.81
2024-02-24T00:19:18.792Z,98351.97
2024-02-24T00:22:08.124Z,98343.63
2024-02-24T00:24:57.509Z,98355.34
2024-02-24T00:27:46.902Z,98366.41
2024-02-24T00:30:38.167Z,98356.13
2024-02-24T00:33:27.646Z,98350.72
2024-02-24T00:36:17.009Z,98363.25
2024-02-24T00:39:07.057Z,98361.66
2024-02-24T00:41:56.625Z,98358.16
2024-02-24T00:44:46.085Z,98362.13
2024-02-24T00:47:36.966Z,98348.31
2024-02-24T00:50:30.441Z,98367.88
2024-02-24T00:53:20.055Z,98366.88
2024-02-24T00:56:09.731Z,98359.88
2024-02-24T00:58:59.306Z,98374.34
2024-02-24T01:01:49.542Z,98371.53
2024-02-24T01:04:40.363Z,98381.59
2024-02-24T01:07:29.850Z,98373.91
2024-02-24T01:10:19.312Z,98387.16
2024-02-24T01:13:08.721Z,98385.78
2024-02-24T01:15:58.171Z,98394.28
2024-02-24T01:18:47.931Z,98399.72
2024-02-24T01:21:43.844Z,98402.88
2024-02-24T01:24:33.272Z,98409.22
2024-02-24T01:27:22.676Z,98393.84
2024-02-24T01:30:13.057Z,98410.22
2024-02-24T01:33:03.859Z,98400.50
2024-02-24T01:35:53.542Z,98408.31
2024-02-24T01:38:44.589Z,98394.16
2024-02-24T01:41:34.222Z,98415.31
2024-02-24T01:44:23.793Z,98392.22
2024-02-24T01:47:13.448Z,98388.94
2024-02-24T01:50:03.158Z,98423.34
2024-02-24T01:52:52.932Z,98421.41
2024-02-24T01:55:44.255Z,98415.50
2024-02-24T01:58:36.828Z,98420.03
2024-02-24T02:01:26.619Z,98418.56
2024-02-24T02:04:18.946Z,98427.84
2024-02-24T02:07:08.430Z,98410.06
2024-02-24T02:09:58.867Z,98416.41
2024-02-24T02:12:49.918Z,98421.97
2024-02-24T02:15:39.457Z,98414.47
2024-02-24T02:18:31.766Z,98428.03
2024-02-24T02:21:23.250Z,98423.75
2024-02-24T02:24:14.152Z,98418.66
2024-02-24T02:27:07.881Z,98438.44
2024-02-24T02:30:01.427Z,98436.84
2024-02-24T02:32:51.127Z,98439.22
2024-02-24T02:35:41.285Z,98436.19
2024-02-24T02:38:30.618Z,98445.13
2024-02-24T02:41:21.604Z,98447.84
2024-02-24T02:44:11.678Z,98440.00
2024-02-24T02:47:03.999Z,98439.47
2024-02-24T02:49:55.098Z,98410.50
2024-02-24T02:52:44.598Z,98440.16
2024-02-24T02:55:34.046Z,98439.50
2024-02-24T02:58:25.016Z,98446.19
2024-02-24T03:01:14.456Z,98439.63
2024-02-24T03:04:03.984Z,98453.78
2024-02-24T03:06:53.645Z,98449.72
2024-02-24T03:09:48.997Z,98463.41
2024-02-24T03:12:38.686Z,98464.31
2024-02-24T03:15:29.846Z,98464.75
2024-02-24T03:18:19.386Z,98459.69
2024-02-24T03:21:08.937Z,98471.31
2024-02-24T03:23:58.709Z,98467.47
2024-02-24T03:26:48.246Z,98452.44
2024-02-24T03:29:37.674Z,98467.47
2024-02-24T03:32:28.738Z,98476.53
2024-02-24T03:35:18.292Z,98480.50
2024-02-24T03:38:07.755Z,98476.88
2024-02-24T03:40:57.087Z,98489.09
2024-02-24T03:43:46.659Z,98495.31
2024-02-24T03:46:36.159Z,98500.59
2024-02-24T03:49:27.085Z,98502.06
2024-02-24T03:52:16.496Z,98513.38
2024-02-24T03:55:06.892Z,98522.00
2024-02-24T03:57:56.353Z,98511.25
2024-02-24T04:00:45.756Z,98522.00
2024-02-24T04:03:35.150Z,98529.34
2024-02-24T04:06:26.063Z,98537.50
2024-02-24T04:09:15.498Z,98526.16
2024-02-24T04:12:05.494Z,98535.88
2024-02-24T04:14:55.832Z,98547.22
2024-02-24T04:17:45.353Z,98548.91
2024-02-24T04:20:34.914Z,98547.66
2024-02-24T04:23:25.878Z,98556.69
2024-02-24T04:26:15.201Z,98564.63
2024-02-24T04:29:04.750Z,98573.88
2024-02-24T04:31:54.543Z,98575.81
2024-02-24T04:34:43.888Z,98586.75
2024-02-24T04:37:33.396Z,98582.25
2024-02-24T04:40:24.286Z,98588.13
2024-02-24T04:43:13.678Z,98596.88
2024-02-24T04:46:03.425Z,98608.06
2024-02-24T04:48:52.862Z,98617.56
2024-02-24T04:51:42.396Z,98618.03
2024-02-24T04:54:31.792Z,98623.22
2024-02-24T04:57:22.681Z,98627.97
2024-02-24T05:00:13.722Z,98620.63
2024-02-24T05:03:03.935Z,98628.41
2024-02-24T05:05:53.501Z,98637.19
2024-02-24T05:08:45.166Z,98637.50
2024-02-24T05:11:35.046Z,98646.00
2024-02-24T05:14:25.850Z,98640.84
2024-02-24T05:17:17.420Z,98656.59
2024-02-24T05:20:08.660Z,98653.75
2024-02-24T05:22:58.129Z,98658.56
2024-02-24T05:25:49.683Z,98668.63
2024-02-24T05:28:39.307Z,98678.69
2024-02-24T05:31:30.246Z,98678.69
2024-02-24T05:34:19.611Z,98682.72
2024-02-24T05:37:09.074Z,98687.81
2024-02-24T05:39:59.802Z,98705.94
2024-02-24T05:42:49.321Z,98700.19
2024-02-24T05:45:39.771Z,98705.94
2024-02-24T05:48:31.247Z,98703.63
2024-02-24T05:51:22.678Z,98708.81
2024-02-24T05:54:12.354Z,98712.84
2024-02-24T05:57:03.403Z,98717.75
2024-02-24T05:59:53.316Z,98721.78
2024-02-24T06:02:42.698Z,98718.88
2024-02-24T06:05:33.945Z,98706.19
2024-02-24T06:08:23.412Z,98706.06
2024-02-24T06:11:13.071Z,98716.91
2024-02-24T06:14:02.511Z,98718.59
2024-02-24T06:16:51.992Z,98727.34
2024-02-24T06:19:41.799Z,98716.09
2024-02-24T06:22:32.790Z,98733.63
2024-02-24T06:25:22.166Z,98734.09
2024-02-24T06:28:12.106Z,98745.59
2024-02-24T06:31:01.677Z,98740.53
2024-02-24T06:33:51.481Z,98734.31
2024-02-24T06:36:40.993Z,98751.84
2024-02-24T06:39:31.950Z,98757.31
2024-02-24T06:42:21.446Z,98789.19
2024-02-24T06:45:11.493Z,98789.25
2024-02-24T06:48:00.952Z,98791.59
2024-02-24T06:50:50.637Z,98791.78
2024-02-24T06:53:40.076Z,98796.72
2024-02-24T06:56:30.959Z,98800.56
2024-02-24T06:59:20.458Z,98803.16
2024-02-24T07:02:10.145Z,98821.31
2024-02-24T07:04:59.615Z,98812.38
2024-02-24T07:07:49.239Z,98815.88
2024-02-24T07:10:38.710Z,98835.31
2024-02-24T07:13:29.492Z,98819.84
2024-02-24T07:16:19.328Z,98764.44
2024-02-24T07:19:08.842Z,98841.50
2024-02-24T07:21:58.490Z,98849.31
2024-02-24T07:24:47.893Z,98856.34
2024-02-24T07:27:37.372Z,98859.84
2024-02-24T07:30:28.512Z,98873.72
2024-02-24T07:33:18.028Z,98867.38
2024-02-24T07:36:08.708Z,98888.53
2024-02-24T07:38:58.237Z,98893.34
2024-02-24T07:41:47.945Z,98892.38
2024-02-24T07:44:37.521Z,98889.50
2024-02-24T07:47:28.384Z,98904.63
2024-02-24T07:50:18.272Z,98903.22
2024-02-24T07:53:08.762Z,98910.22
2024-02-24T07:55:58.225Z,98925.88
2024-02-24T07:58:47.553Z,98929.50
2024-02-24T08:01:36.918Z,98930.81
2024-02-24T08:04:27.617Z,98944.00
2024-02-24T08:07:17.254Z,98947.84
2024-02-24T08:10:08.095Z,98949.56
2024-02-24T08:12:57.490Z,98949.13
2024-02-24T08:15:46.890Z,98946.09
2024-02-24T08:18:36.858Z,98949.44
2024-02-24T08:21:27.869Z,98931.91
2024-02-24T08:24:18.096Z,98959.50
2024-02-24T08:27:07.739Z,98965.25
2024-02-24T08:29:57.123Z,98972.88
2024-02-24T08:32:48.548Z,98970.81
2024-02-24T08:35:39.103Z,98972.72
2024-02-24T08:38:30.037Z,98977.22
2024-02-24T08:41:19.375Z,98982.47
2024-02-24T08:44:08.848Z,98976.09
2024-02-24T08:46:58.264Z,98983.13
2024-02-24T08:49:47.850Z,98974.81
2024-02-24T08:52:46.150Z,98981.66
2024-02-24T08:55:41.109Z,98975.31
2024-02-24T08:58:30.565Z,98990.25
2024-02-24T09:01:20.668Z,98981.50
2024-02-24T09:04:10.042Z,98984.03
2024-02-24T09:06:59.477Z,98975.28
2024-02-24T09:09:48.962Z,98974.63
2024-02-24T09:12:39.824Z,98989.75
2024-02-24T09:15:32.212Z,98973.81
2024-02-24T09:18:21.877Z,98992.16
2024-02-24T09:21:13.250Z,98986.91
2024-02-24T09:24:02.905Z,99006.66
2024-02-24T09:26:53.487Z,99012.88
2024-02-24T09:29:44.726Z,98997.41
2024-02-24T09:32:34.119Z,99006.97
2024-02-24T09:35:23.691Z,99015.13
2024-02-24T09:38:13.139Z,99012.53
2024-02-24T09:41:02.863Z,99011.06
2024-02-24T09:43:53.522Z,99004.81
2024-02-24T09:46:45.594Z,99011.78
2024-02-24T09:49:35.203Z,99009.97
2024-02-24T09:52:24.919Z,99011.81
2024-02-24T09:55:14.318Z,99014.59
2024-02-24T09:58:04.553Z,99024.00
2024-02-24T10:00:54.228Z,99034.19
2024-02-24T10:03:47.174Z,99031.69
2024-02-24T10:06:36.743Z,99026.47
2024-02-24T10:09:26.174Z,99034.41
2024-02-24T10:12:15.575Z,99043.50
2024-02-24T10:15:05.245Z,99037.63
2024-02-24T10:18:00.092Z,99048.78
2024-02-24T10:20:52.899Z,99058.00
2024-02-24T10:23:42.372Z,99062.75
2024-02-24T10:26:31.912Z,99052.22
2024-02-24T10:29:22.552Z,99063.44
2024-02-24T10:32:13.767Z,99068.66
2024-02-24T10:35:05.444Z,99066.06
2024-02-24T10:38:11.422Z,99070.66
2024-02-24T10:41:09.283Z,99074.91
2024-02-24T10:44:10.398Z,99077.28
2024-02-24T10:47:08.289Z,99078.66
2024-02-24T10:49:57.714Z,99086.19
2024-02-24T10:52:48.055Z,99088.16
2024-02-24T10:55:40.068Z,99090.38
2024-02-24T10:58:29.591Z,99097.72
2024-02-24T11:01:20.791Z,99096.31
2024-02-24T11:04:11.677Z,99094.78
2024-02-24T11:07:02.599Z,99096.72
2024-02-24T11:09:56.423Z,99109.38
2024-02-24T11:12:47.295Z,99119.25
2024-02-24T11:15:36.593Z,99121.72
2024-02-24T11:18:56.524Z,99117.50
2024-02-24T11:22:03.651Z,99126.13
2024-02-24T11:25:03.549Z,99133.06
2024-02-24T11:27:59.613Z,99141.25
2024-02-24T11:30:53.913Z,99149.88
2024-02-24T11:33:43.555Z,99151.25
2024-02-24T11:36:34.773Z,99153.09
2024-02-24T11:39:25.128Z,99161.94
2024-02-24T11:42:16.544Z,99165.69
2024-02-24T11:45:09.571Z,99170.09
2024-02-24T11:47:59.074Z,99170.09
2024-02-24T11:50:49.298Z,99167.16
2024-02-24T11:53:38.715Z,99163.97
2024-02-24T11:56:28.222Z,99155.44
2024-02-24T11:59:18.017Z,99164.31
2024-02-24T12:02:08.934Z,99166.66
2024-02-24T12:05:15.423Z,99155.78
2024-02-24T12:08:07.829Z,99152.03
2024-02-24T12:10:57.346Z,99159.66
2024-02-24T12:13:48.108Z,99154.94
2024-02-24T12:16:39.420Z,99147.94
2024-02-24T12:19:31.965Z,99141.91
2024-02-24T12:22:24.317Z,99161.69
2024-02-24T12:25:17.075Z,99161.25
2024-02-24T12:28:07.894Z,99160.78
2024-02-24T12:30:57.328Z,99157.16
2024-02-24T12:33:47.857Z,99157.72
2024-02-24T12:36:38.828Z,99159.75
2024-02-24T12:39:31.168Z,99164.44
2024-02-24T12:42:21.229Z,99165.13
2024-02-24T12:45:11.482Z,99167.41
2024-02-24T12:48:00.831Z,99155.22
2024-02-24T12:50:51.159Z,99162.03
2024-02-24T12:53:42.846Z,99165.81
2024-02-24T12:56:32.361Z,99164.91
2024-02-24T12:59:23.470Z,99171.38
2024-02-24T13:02:13.034Z,99170.69
2024-02-24T13:05:02.558Z,99173.63
2024-02-24T13:07:53.156Z,99179.97
2024-02-24T13:10:44.284Z,99178.25
2024-02-24T13:13:33.656Z,99190.53
2024-02-24T13:16:23.036Z,99189.03
2024-02-24T13:19:12.453Z,99193.72
2024-02-24T13:22:01.935Z,99191.59
2024-02-24T13:24:51.396Z,99183.91
2024-02-24T13:27:42.231Z,99197.59
2024-02-24T13:30:31.467Z,99194.84
2024-02-24T13:33:21.179Z,99198.03
2024-02-24T13:36:11.072Z,99180.53
2024-02-24T13:39:00.716Z,99189.31
2024-02-24T13:41:52.668Z,99190.56
2024-02-24T13:44:43.701Z,99191.94
2024-02-24T13:47:33.122Z,99183.88
2024-02-24T13:50:23.982Z,99187.66
2024-02-24T13:53:13.633Z,99178.78
2024-02-24T13:56:05.170Z,99191.41
2024-02-24T13:58:55.075Z,99190.84
2024-02-24T14:01:45.769Z,99180.38
2024-02-24T14:04:35.129Z,99190.63
2024-02-24T14:07:25.212Z,99185.16
2024-02-24T14:10:14.473Z,99195.25
2024-02-24T14:13:04.030Z,99176.63
2024-02-24T14:15:53.442Z,99186.72
2024-02-24T14:18:44.356Z,99194.19
2024-02-24T14:21:33.763Z,99179.50
2024-02-24T14:24:23.161Z,99177.94
2024-02-24T14:27:12.609Z,99185.06
2024-02-24T14:30:02.055Z,99180.97
2024-02-24T14:32:52.191Z,99191.53
2024-02-24T14:35:43.374Z,99191.69
2024-02-24T14:38:33.006Z,99189.88
2024-02-24T14:41:22.903Z,99181.03
2024-02-24T14:44:12.533Z,99179.75
2024-02-24T14:47:06.399Z,99186.66
2024-02-24T14:49:55.961Z,99183.91
2024-02-24T14:52:47.046Z,99179.78
2024-02-24T14:55:36.416Z,99174.13
2024-02-24T14:58:25.776Z,99179.91
2024-02-24T15:01:15.944Z,99165.22
2024-02-24T15:04:06.193Z,99178.72
2024-02-24T15:06:55.982Z,99178.13
2024-02-24T15:09:48.925Z,99185.19
2024-02-24T15:12:38.486Z,99179.22
2024-02-24T15:15:27.776Z,99183.56
2024-02-24T15:18:17.439Z,99187.38
2024-02-24T15:21:07.835Z,99186.59
2024-02-24T15:23:57.280Z,99192.13
2024-02-24T15:26:48.398Z,99178.06
2024-02-24T15:29:37.991Z,99194.97
2024-02-24T15:32:27.638Z,99199.22
2024-02-24T15:35:17.617Z,99200.00
2024-02-24T15:38:07.756Z,99187.63
2024-02-24T15:40:57.139Z,99199.59
2024-02-24T15:43:48.222Z,99204.88
2024-02-24T15:46:37.680Z,99206.69
2024-02-24T15:49:27.004Z,99205.59
2024-02-24T15:52:16.758Z,99206.28
2024-02-24T15:55:07.085Z,99210.28
2024-02-24T15:57:56.631Z,99204.28
2024-02-24T16:00:47.875Z,99194.38
2024-02-24T16:03:37.411Z,99213.38
2024-02-24T16:06:27.434Z,99211.75
2024-02-24T16:09:17.478Z,99208.56
2024-02-24T16:12:07.973Z,99213.47
2024-02-24T16:14:57.394Z,99218.47
2024-02-24T16:17:49.194Z,99225.28
2024-02-24T16:20:38.625Z,99223.59
2024-02-24T16:23:28.086Z,99225.97
2024-02-24T16:26:17.534Z,99212.31
2024-02-24T16:29:07.056Z,99214.25
2024-02-24T16:31:56.617Z,99220.63
2024-02-24T16:34:47.903Z,99229.75
2024-02-24T16:37:37.415Z,99234.03
2024-02-24T16:40:26.805Z,99224.03
2024-02-24T16:43:16.217Z,99234.28
2024-02-24T16:46:05.995Z,99221.28
2024-02-24T16:48:55.764Z,99233.56
2024-02-24T16:51:46.990Z,99234.03
2024-02-24T16:54:39.118Z,99241.06
2024-02-24T16:57:28.948Z,99239.50
2024-02-24T17:00:19.346Z,99241.53
2024-02-24T17:03:08.613Z,99248.22
2024-02-24T17:05:58.680Z,99245.63
2024-02-24T17:08:49.866Z,99224.56
2024-02-24T17:11:39.373Z,99240.38
2024-02-24T17:14:28.846Z,99217.41
2024-02-24T17:17:19.473Z,99241.84
2024-02-24T17:20:10.502Z,99238.66
2024-02-24T17:23:03.150Z,99236.38
2024-02-24T17:25:53.869Z,99224.69
2024-02-24T17:28:43.349Z,99225.47
2024-02-24T17:31:32.648Z,99228.56
2024-02-24T17:34:22.561Z,99226.03
2024-02-24T17:37:12.041Z,99223.53
2024-02-24T17:40:01.449Z,99221.38
2024-02-24T17:42:52.244Z,99212.94
2024-02-24T17:45:41.686Z,99219.09
2024-02-24T17:48:31.408Z,99205.28
2024-02-24T17:51:20.911Z,99218.47
2024-02-24T17:54:10.378Z,99224.78
2024-02-24T17:56:59.824Z,99223.41
2024-02-24T17:59:50.761Z,99227.03
2024-02-24T18:02:41.156Z,99219.72
2024-02-24T18:05:30.613Z,99223.31
2024-02-24T18:08:20.126Z,99224.66
2024-02-24T18:11:10.904Z,99224.06
2024-02-24T18:14:00.583Z,99226.50
2024-02-24T18:16:51.354Z,99221.06
2024-02-24T18:19:40.748Z,99221.75
2024-02-24T18:22:30.085Z,99226.38
2024-02-24T18:25:19.642Z,99217.75
2024-02-24T18:28:09.095Z,99218.41
2024-02-24T18:30:59.660Z,99216.34
2024-02-24T18:33:50.739Z,99207.59
2024-02-24T18:36:40.469Z,99215.63
2024-02-24T18:39:30.353Z,99204.25
2024-02-24T18:42:23.650Z,99209.13
2024-02-24T18:45:13.796Z,99213.78
2024-02-24T18:48:04.054Z,99213.78
2024-02-24T18:50:55.575Z,99206.25
2024-02-24T18:53:48.079Z,99217.28
2024-02-24T18:56:37.593Z,99225.44
2024-02-24T18:59:27.058Z,99218.72
2024-02-24T19:02:17.438Z,99226.59
2024-02-24T19:05:07.501Z,99233.47
2024-02-24T19:07:58.347Z,99239.72
2024-02-24T19:10:47.869Z,99236.19
2024-02-24T19:13:37.295Z,99236.84
2024-02-24T19:16:26.931Z,99234.31
2024-02-24T19:19:16.673Z,99229.88
2024-02-24T19:22:06.499Z,99239.97
2024-02-24T19:24:57.279Z,99241.75
2024-02-24T19:27:47.303Z,99237.31
2024-02-24T19:30:37.004Z,99225.59
2024-02-24T19:33:26.609Z,99232.97
2024-02-24T19:36:16.108Z,99218.81
2024-02-24T19:39:15.604Z,99228.53
2024-02-24T19:42:10.587Z,99240.88
2024-02-24T19:45:01.009Z,99241.19
2024-02-24T19:47:50.610Z,99249.22
2024-02-24T19:50:40.459Z,99245.22
2024-02-24T19:53:29.831Z,99246.66
2024-02-24T19:56:19.262Z,99247.34
2024-02-24T19:59:10.464Z,99244.44
2024-02-24T20:02:00.787Z,99249.75
2024-02-24T20:04:50.054Z,99237.31
2024-02-24T20:07:39.585Z,99248.84
2024-02-24T20:10:29.381Z,99236.41
2024-02-24T20:13:18.669Z,99243.44
2024-02-24T20:16:09.793Z,99232.44
2024-02-24T20:18:59.243Z,99244.91
2024-02-24T20:21:48.734Z,99253.38
2024-02-24T20:24:38.066Z,99242.69
2024-02-24T20:27:28.193Z,99245.25
2024-02-24T20:30:20.801Z,99232.63
2024-02-24T20:33:12.135Z,99232.63
2024-02-24T20:36:01.619Z,99223.84
2024-02-24T20:38:52.339Z,99219.53
2024-02-24T20:41:42.487Z,99218.25
2024-02-24T20:44:31.898Z,99216.50
2024-02-24T20:47:22.821Z,99209.16
2024-02-24T20:50:13.881Z,99214.31
2024-02-24T20:53:05.285Z,99207.25
2024-02-24T20:55:54.673Z,99208.38
2024-02-24T20:58:44.090Z,99197.19
2024-02-24T21:01:33.401Z,99202.13
2024-02-24T21:04:22.917Z,99186.84
2024-02-24T21:07:14.486Z,99204.38
2024-02-24T21:10:03.933Z,99192.56
2024-02-24T21:12:53.567Z,99201.66
2024-02-24T21:15:42.909Z,99199.63
2024-02-24T21:18:32.903Z,99201.03
2024-02-24T21:21:23.271Z,99163.38
2024-02-24T21:24:14.113Z,99191.75
2024-02-24T21:27:03.677Z,99193.69
2024-02-24T21:29:53.788Z,99185.38
2024-02-24T21:32:43.504Z,99175.78
2024-02-24T21:35:33.244Z,99175.31
2024-02-24T21:38:23.057Z,99165.59
2024-02-24T21:41:19.016Z,99170.53
2024-02-24T21:44:09.020Z,99149.63
2024-02-24T21:46:58.517Z,99156.13
2024-02-24T21:49:47.872Z,99160.78
2024-02-24T21:52:37.174Z,99158.06
2024-02-24T21:55:27.032Z,99157.44
2024-02-24T21:58:18.525Z,99159.03
2024-02-24T22:01:07.888Z,99149.63
2024-02-24T22:03:57.472Z,99155.66
2024-02-24T22:06:47.473Z,99156.31
2024-02-24T22:09:37.466Z,99153.44
2024-02-24T22:12:27.142Z,99150.06
2024-02-24T22:15:19.762Z,99150.06
2024-02-24T22:18:09.723Z,99154.03
2024-02-24T22:20:59.449Z,99141.59
2024-02-24T22:23:51.678Z,99159.63
2024-02-24T22:26:44.351Z,99155.00
2024-02-24T22:29:34.008Z,99149.25
2024-02-24T22:32:25.096Z,99140.28
2024-02-24T22:35:15.563Z,99144.13
2024-02-24T22:38:05.477Z,99137.41
2024-02-24T22:40:54.874Z,99136.47
2024-02-24T22:43:44.510Z,99129.78
2024-02-24T22:46:34.360Z,99121.13
2024-02-24T22:49:25.352Z,99110.78
2024-02-24T22:52:17.847Z,99110.63
2024-02-24T22:55:09.803Z,99115.25
2024-02-24T22:57:59.468Z,99113.22
2024-02-24T23:00:48.964Z,99116.56
2024-02-24T23:03:38.415Z,99108.25
2024-02-24T23:06:29.313Z,99105.38
2024-02-24T23:09:19.104Z,99102.84
2024-02-24T23:12:09.298Z,99100.97
2024-02-24T23:14:58.924Z,99102.72
2024-02-24T23:17:48.517Z,99085.81
2024-02-24T23:20:37.810Z,99078.16
2024-02-24T23:23:28.648Z,99088.22
2024-02-24T23:26:18.114Z,99087.72
2024-02-24T23:29:07.478Z,99081.50
2024-02-24T23:31:56.864Z,99072.88
2024-02-24T23:34:47.128Z,99071.28
2024-02-24T23:37:36.612Z,99072.41
2024-02-24T23:40:27.677Z,99079.09
2024-02-24T23:43:17.001Z,99070.63
2024-02-24T23:46:06.886Z,99068.72
2024-02-24T23:48:56.623Z,99069.50
2024-02-24T23:51:46.144Z,99061.53
2024-02-24T23:54:35.676Z,99061.69
2024-02-24T23:57:30.185Z,99079.41
